Terminal Aerodrome Forecast
Issued by NWS Bismarck, ND

Home | Current Version | Previous Version | Graphics & Text | Print | Product List | Glossary On
Versions: 1 2 3 4 5 6 7 8 9 10 11 12 13
268
FTUS43 KBIS 151020 AAC
TAFBIS
TAF AMD
KBIS 151020Z 1510/1606 33010KT P6SM SCT020
     FM151200 33014KT P6SM FEW030
     FM160000 33008KT P6SM FEW250
     FM160500 30004KT P6SM FEW250=

USA.gov is the U.S. government's official web portal to all federal, state and local government web resources and services.